createdAt,value
2019-02-15T00:00:13.015Z,1031.35
2019-02-15T00:01:12.967Z,1031.34
2019-02-15T00:02:12.975Z,1031.39
2019-02-15T00:03:12.959Z,1031.36
2019-02-15T00:04:12.945Z,1031.36
2019-02-15T00:05:12.930Z,1031.34
2019-02-15T00:06:12.917Z,1031.35
2019-02-15T00:07:12.955Z,1031.33
2019-02-15T00:08:12.898Z,1031.35
2019-02-15T00:09:12.882Z,1031.31
2019-02-15T00:10:12.887Z,1031.33
2019-02-15T00:11:12.875Z,1031.30
2019-02-15T00:12:12.866Z,1031.34
2019-02-15T00:13:13.802Z,1031.34
2019-02-15T00:14:12.829Z,1031.32
2019-02-15T00:15:12.827Z,1031.42
2019-02-15T00:16:12.813Z,1031.37
2019-02-15T00:17:12.795Z,1031.37
2019-02-15T00:18:12.806Z,1031.33
2019-02-15T00:19:12.781Z,1031.32
2019-02-15T00:20:12.767Z,1031.33
2019-02-15T00:21:12.756Z,1031.34
2019-02-15T00:22:12.753Z,1031.36
2019-02-15T00:23:12.766Z,1031.35
2019-02-15T00:24:12.755Z,1031.35
2019-02-15T00:25:12.723Z,1031.38
2019-02-15T00:26:12.707Z,1031.31
2019-02-15T00:27:12.697Z,1031.36
2019-02-15T00:28:12.733Z,1031.34
2019-02-15T00:29:12.669Z,1031.40
2019-02-15T00:30:12.661Z,1031.35
2019-02-15T00:31:12.650Z,1031.32
2019-02-15T00:32:12.647Z,1031.34
2019-02-15T00:33:12.655Z,1031.33
2019-02-15T00:34:12.632Z,1031.39
2019-02-15T00:35:12.609Z,1031.37
2019-02-15T00:36:12.593Z,1031.38
2019-02-15T00:37:12.591Z,1031.37
2019-02-15T00:38:12.607Z,1031.36
2019-02-15T00:39:12.571Z,1031.41
2019-02-15T00:40:12.560Z,1031.38
2019-02-15T00:41:12.571Z,1031.35
2019-02-15T00:42:12.549Z,1031.41
2019-02-15T00:43:12.539Z,1031.41
2019-02-15T00:44:12.521Z,1031.46
2019-02-15T00:45:12.513Z,1031.45
2019-02-15T00:46:12.489Z,1031.43
2019-02-15T00:47:12.487Z,1031.42
2019-02-15T00:48:12.495Z,1031.40
2019-02-15T00:49:12.466Z,1031.43
2019-02-15T00:50:12.446Z,1031.40
2019-02-15T00:51:12.438Z,1031.42
2019-02-15T00:52:12.421Z,1031.39
2019-02-15T00:53:12.461Z,1031.39
2019-02-15T00:54:12.413Z,1031.39
2019-02-15T00:55:12.513Z,1031.41
2019-02-15T00:56:12.387Z,1031.39
2019-02-15T00:57:12.386Z,1031.36
2019-02-15T00:58:12.386Z,1031.36
2019-02-15T00:59:12.363Z,1031.33
2019-02-15T01:00:12.357Z,1031.35
2019-02-15T01:01:12.356Z,1031.35
2019-02-15T01:02:12.344Z,1031.39
2019-02-15T01:03:12.375Z,1031.34
2019-02-15T01:04:12.326Z,1031.35
2019-02-15T01:05:12.300Z,1031.36
2019-02-15T01:06:12.284Z,1031.38
2019-02-15T01:07:12.267Z,1031.34
2019-02-15T01:08:12.275Z,1031.31
2019-02-15T01:09:12.245Z,1031.28
2019-02-15T01:10:12.256Z,1031.28
2019-02-15T01:11:12.261Z,1031.27
2019-02-15T01:12:12.221Z,1031.26
2019-02-15T01:13:12.305Z,1031.25
2019-02-15T01:14:12.211Z,1031.24
2019-02-15T01:15:12.226Z,1031.23
2019-02-15T01:16:12.219Z,1031.19
2019-02-15T01:17:12.215Z,1031.24
2019-02-15T01:18:12.185Z,1031.19
2019-02-15T01:19:12.156Z,1031.19
2019-02-15T01:20:12.157Z,1031.18
2019-02-15T01:21:12.166Z,1031.22
2019-02-15T01:22:12.135Z,1031.24
2019-02-15T01:23:12.148Z,1031.25
2019-02-15T01:24:12.141Z,1031.24
2019-02-15T01:25:12.093Z,1031.23
2019-02-15T01:26:12.100Z,1031.25
2019-02-15T01:27:12.087Z,1031.17
2019-02-15T01:28:12.087Z,1031.22
2019-02-15T01:29:12.071Z,1031.20
2019-02-15T01:30:12.032Z,1031.23
2019-02-15T01:31:12.121Z,1031.21
2019-02-15T01:32:12.039Z,1031.19
2019-02-15T01:33:12.059Z,1031.20
2019-02-15T01:34:12.016Z,1031.17
2019-02-15T01:35:12.001Z,1031.14
2019-02-15T01:36:12.016Z,1031.14
2019-02-15T01:37:11.965Z,1031.14
2019-02-15T01:38:11.966Z,1031.13
2019-02-15T01:39:11.971Z,1031.13
2019-02-15T01:40:11.973Z,1031.10
2019-02-15T01:41:11.941Z,1031.09
2019-02-15T01:42:11.896Z,1031.06
2019-02-15T01:43:11.940Z,1031.05
2019-02-15T01:44:11.944Z,1031.08
2019-02-15T01:45:11.881Z,1031.01
2019-02-15T01:46:11.863Z,1030.98
2019-02-15T01:47:11.863Z,1030.98
2019-02-15T01:48:11.845Z,1030.96
2019-02-15T01:49:11.845Z,1030.97
2019-02-15T01:50:11.910Z,1030.95
2019-02-15T01:51:11.817Z,1030.93
2019-02-15T01:52:11.838Z,1030.93
2019-02-15T01:53:11.815Z,1030.93
2019-02-15T01:54:11.807Z,1030.91
2019-02-15T01:55:11.786Z,1030.89
2019-02-15T01:56:11.755Z,1030.88
2019-02-15T01:57:11.761Z,1030.91
2019-02-15T01:58:11.757Z,1030.88
2019-02-15T01:59:11.757Z,1030.88
2019-02-15T02:00:11.728Z,1030.94
2019-02-15T02:01:11.712Z,1030.95
2019-02-15T02:02:11.685Z,1030.92
2019-02-15T02:03:11.677Z,1030.94
2019-02-15T02:04:11.696Z,1030.90
2019-02-15T02:05:11.686Z,1030.93
2019-02-15T02:06:11.654Z,1030.90
2019-02-15T02:07:11.633Z,1030.93
2019-02-15T02:08:11.627Z,1030.87
2019-02-15T02:09:11.690Z,1030.89
2019-02-15T02:10:11.629Z,1030.91
2019-02-15T02:11:11.611Z,1030.88
2019-02-15T02:12:11.610Z,1030.85
2019-02-15T02:13:11.561Z,1030.83
2019-02-15T02:14:11.669Z,1030.81
2019-02-15T02:15:11.590Z,1030.83
2019-02-15T02:16:11.562Z,1030.81
2019-02-15T02:17:11.536Z,1030.78
2019-02-15T02:18:11.524Z,1030.86
2019-02-15T02:19:11.695Z,1030.83
2019-02-15T02:20:11.576Z,1030.83
2019-02-15T02:21:11.521Z,1030.84
2019-02-15T02:22:11.484Z,1030.83
2019-02-15T02:23:11.499Z,1030.79
2019-02-15T02:24:11.522Z,1030.75
2019-02-15T02:25:11.515Z,1030.76
2019-02-15T02:26:11.440Z,1030.67
2019-02-15T02:27:11.448Z,1030.72
2019-02-15T02:28:11.417Z,1030.67
2019-02-15T02:29:11.445Z,1030.64
2019-02-15T02:30:11.427Z,1030.66
2019-02-15T02:31:11.396Z,1030.65
2019-02-15T02:32:11.507Z,1030.69
2019-02-15T02:33:11.369Z,1030.67
2019-02-15T02:34:11.369Z,1030.72
2019-02-15T02:35:11.380Z,1030.72
2019-02-15T02:36:11.327Z,1030.71
2019-02-15T02:37:11.354Z,1030.74
2019-02-15T02:38:11.325Z,1030.76
2019-02-15T02:39:11.299Z,1030.75
2019-02-15T02:40:11.411Z,1030.74
2019-02-15T02:41:11.350Z,1030.66
2019-02-15T02:42:11.255Z,1030.70
2019-02-15T02:43:11.263Z,1030.67
2019-02-15T02:44:11.256Z,1030.68
2019-02-15T02:45:11.274Z,1030.71
2019-02-15T02:46:11.274Z,1030.65
2019-02-15T02:47:11.211Z,1030.65
2019-02-15T02:48:11.193Z,1030.67
2019-02-15T02:49:11.204Z,1030.61
2019-02-15T02:50:11.221Z,1030.61
2019-02-15T02:51:11.226Z,1030.68
2019-02-15T02:52:11.194Z,1030.64
2019-02-15T02:53:11.196Z,1030.63
2019-02-15T02:54:11.131Z,1030.67
2019-02-15T02:55:11.150Z,1030.66
2019-02-15T02:56:11.142Z,1030.66
2019-02-15T02:57:11.119Z,1030.69
2019-02-15T02:58:11.111Z,1030.67
2019-02-15T02:59:11.104Z,1030.66
2019-02-15T03:00:11.073Z,1030.61
2019-02-15T03:01:11.125Z,1030.63
2019-02-15T03:02:11.059Z,1030.65
2019-02-15T03:03:11.091Z,1030.70
2019-02-15T03:04:11.034Z,1030.64
2019-02-15T03:05:11.020Z,1030.63
2019-02-15T03:06:11.022Z,1030.65
2019-02-15T03:07:11.005Z,1030.61
2019-02-15T03:08:11.115Z,1030.62
2019-02-15T03:09:11.959Z,1030.62
2019-02-15T03:10:11.012Z,1030.66
2019-02-15T03:11:10.999Z,1030.57
2019-02-15T03:12:10.982Z,1030.59
2019-02-15T03:13:11.000Z,1030.59
2019-02-15T03:14:11.946Z,1030.54
2019-02-15T03:15:11.086Z,1030.62
2019-02-15T03:16:10.945Z,1030.58
2019-02-15T03:17:10.931Z,1030.65
2019-02-15T03:18:10.930Z,1030.58
2019-02-15T03:19:10.908Z,1030.62
2019-02-15T03:20:10.978Z,1030.64
2019-02-15T03:21:10.916Z,1030.59
2019-02-15T03:22:10.876Z,1030.60
2019-02-15T03:23:10.883Z,1030.58
2019-02-15T03:24:10.853Z,1030.62
2019-02-15T03:25:10.823Z,1030.57
2019-02-15T03:26:10.917Z,1030.68
2019-02-15T03:27:10.788Z,1030.66
2019-02-15T03:28:10.776Z,1030.71
2019-02-15T03:29:10.767Z,1030.75
2019-02-15T03:30:10.772Z,1030.68
2019-02-15T03:31:10.771Z,1030.72
2019-02-15T03:32:10.753Z,1030.73
2019-02-15T03:33:10.853Z,1030.73
2019-02-15T03:34:10.771Z,1030.75
2019-02-15T03:35:10.755Z,1030.75
2019-02-15T03:36:10.777Z,1030.78
2019-02-15T03:37:10.714Z,1030.77
2019-02-15T03:38:10.730Z,1030.73
2019-02-15T03:39:10.839Z,1030.80
2019-02-15T03:40:10.649Z,1030.80
2019-02-15T03:41:10.666Z,1030.78
2019-02-15T03:42:10.622Z,1030.75
2019-02-15T03:43:10.623Z,1030.74
2019-02-15T03:44:10.607Z,1030.75
2019-02-15T03:45:10.589Z,1030.78
2019-02-15T03:46:10.624Z,1030.75
2019-02-15T03:47:10.573Z,1030.78
2019-02-15T03:48:10.555Z,1030.72
2019-02-15T03:49:10.574Z,1030.79
2019-02-15T03:50:10.541Z,1030.74
2019-02-15T03:51:10.720Z,1030.83
2019-02-15T03:52:10.532Z,1030.81
2019-02-15T03:53:10.512Z,1030.75
2019-02-15T03:54:10.500Z,1030.74
2019-02-15T03:55:10.489Z,1030.72
2019-02-15T03:56:10.499Z,1030.77
2019-02-15T03:57:10.517Z,1030.74
2019-02-15T03:58:10.469Z,1030.75
2019-02-15T03:59:10.442Z,1030.76
2019-02-15T04:00:10.498Z,1030.75
2019-02-15T04:01:10.445Z,1030.72
2019-02-15T04:02:10.967Z,1030.66
2019-02-15T04:03:10.404Z,1030.68
2019-02-15T04:04:10.408Z,1030.66
2019-02-15T04:05:10.376Z,1030.73
2019-02-15T04:06:10.408Z,1030.72
2019-02-15T04:07:10.383Z,1030.71
2019-02-15T04:08:10.403Z,1030.71
2019-02-15T04:09:10.365Z,1030.72
2019-02-15T04:10:10.352Z,1030.69
2019-02-15T04:11:14.880Z,1030.73
2019-02-15T04:12:15.112Z,1030.69
2019-02-15T04:13:11.559Z,1030.71
2019-02-15T04:14:10.325Z,1030.72
2019-02-15T04:15:11.192Z,1030.70
2019-02-15T04:16:10.336Z,1030.74
2019-02-15T04:17:10.270Z,1030.73
2019-02-15T04:18:10.300Z,1030.73
2019-02-15T04:19:10.254Z,1030.76
2019-02-15T04:20:10.287Z,1030.78
2019-02-15T04:21:10.258Z,1030.78
2019-02-15T04:22:10.300Z,1030.78
2019-02-15T04:23:10.184Z,1030.82
2019-02-15T04:24:10.226Z,1030.85
2019-02-15T04:25:10.182Z,1030.83
2019-02-15T04:26:10.191Z,1030.80
2019-02-15T04:27:10.200Z,1030.81
2019-02-15T04:28:10.210Z,1030.78
2019-02-15T04:29:10.137Z,1030.82
2019-02-15T04:30:10.124Z,1030.87
2019-02-15T04:31:10.140Z,1030.82
2019-02-15T04:32:10.138Z,1030.87
2019-02-15T04:33:10.102Z,1030.82
2019-02-15T04:34:10.074Z,1030.80
2019-02-15T04:35:10.068Z,1030.80
2019-02-15T04:36:10.074Z,1030.82
2019-02-15T04:37:10.070Z,1030.79
2019-02-15T04:38:10.035Z,1030.78
2019-02-15T04:39:10.052Z,1030.71
2019-02-15T04:40:10.132Z,1030.72
2019-02-15T04:41:09.997Z,1030.71
2019-02-15T04:42:10.002Z,1030.75
2019-02-15T04:43:10.025Z,1030.70
2019-02-15T04:44:09.974Z,1030.76
2019-02-15T04:45:09.950Z,1030.77
2019-02-15T04:46:09.939Z,1030.76
2019-02-15T04:47:09.954Z,1030.77
2019-02-15T04:48:09.935Z,1030.74
2019-02-15T04:49:09.948Z,1030.82
2019-02-15T04:50:09.892Z,1030.84
2019-02-15T04:52:10.984Z,1030.85
2019-02-15T04:53:09.854Z,1030.88
2019-02-15T04:54:09.837Z,1030.81
2019-02-15T04:56:10.992Z,1030.79
2019-02-15T04:58:10.967Z,1030.82
2019-02-15T04:59:09.857Z,1030.82
2019-02-15T05:00:30.872Z,1030.80
2019-02-15T05:02:18.939Z,1030.86
2019-02-15T05:03:19.633Z,1030.80
2019-02-15T05:04:18.905Z,1030.86
2019-02-15T05:05:18.872Z,1030.83
2019-02-15T05:06:18.884Z,1030.83
2019-02-15T05:07:20.042Z,1030.82
2019-02-15T05:08:18.858Z,1030.75
2019-02-15T05:09:19.714Z,1030.79
2019-02-15T05:10:18.827Z,1030.86
2019-02-15T05:11:18.842Z,1030.88
2019-02-15T05:12:18.860Z,1030.82
2019-02-15T05:13:18.844Z,1030.80
2019-02-15T05:14:18.788Z,1030.87
2019-02-15T05:15:18.781Z,1030.87
2019-02-15T05:16:18.784Z,1030.85
2019-02-15T05:17:18.757Z,1030.84
2019-02-15T05:18:18.787Z,1030.85
2019-02-15T05:19:18.749Z,1030.86
2019-02-15T05:20:18.716Z,1030.84
2019-02-15T05:21:18.714Z,1030.84
2019-02-15T05:22:18.702Z,1030.89
2019-02-15T05:23:18.735Z,1030.81
2019-02-15T05:24:18.730Z,1030.82
2019-02-15T05:25:18.664Z,1030.85
2019-02-15T05:26:18.672Z,1030.83
2019-02-15T05:27:18.671Z,1030.85
2019-02-15T05:28:18.676Z,1030.88
2019-02-15T05:29:18.643Z,1030.77
2019-02-15T05:30:18.646Z,1030.75
2019-02-15T05:31:18.600Z,1030.78
2019-02-15T05:32:18.643Z,1030.83
2019-02-15T05:33:18.632Z,1030.80
2019-02-15T05:34:18.610Z,1030.80
2019-02-15T05:35:18.570Z,1030.76
2019-02-15T05:36:18.610Z,1030.80
2019-02-15T05:37:18.554Z,1030.78
2019-02-15T05:38:18.553Z,1030.75
2019-02-15T05:39:18.552Z,1030.82
2019-02-15T05:40:18.662Z,1030.82
2019-02-15T05:41:18.520Z,1030.79
2019-02-15T05:42:18.488Z,1030.79
2019-02-15T05:43:18.478Z,1030.79
2019-02-15T05:44:18.496Z,1030.80
2019-02-15T05:45:18.484Z,1030.78
2019-02-15T05:46:18.444Z,1030.79
2019-02-15T05:47:18.445Z,1030.84
2019-02-15T05:48:18.422Z,1030.84
2019-02-15T05:49:18.428Z,1030.85
2019-02-15T05:50:18.476Z,1030.85
2019-02-15T05:51:18.454Z,1030.84
2019-02-15T05:52:18.385Z,1030.90
2019-02-15T05:53:18.395Z,1030.86
2019-02-15T05:54:18.390Z,1030.88
2019-02-15T05:55:18.458Z,1030.88
2019-02-15T05:56:18.361Z,1030.82
2019-02-15T05:57:18.351Z,1030.82
2019-02-15T05:58:18.316Z,1030.82
2019-02-15T05:59:18.325Z,1030.84
2019-02-15T06:00:18.288Z,1030.86
2019-02-15T06:01:18.289Z,1030.88
2019-02-15T06:02:18.292Z,1030.85
2019-02-15T06:03:18.284Z,1030.88
2019-02-15T06:04:18.266Z,1030.88
2019-02-15T06:05:18.270Z,1030.87
2019-02-15T06:06:18.232Z,1030.84
2019-02-15T06:07:18.233Z,1030.82
2019-02-15T06:08:18.238Z,1030.89
2019-02-15T06:09:18.228Z,1030.84
2019-02-15T06:10:20.537Z,1030.86
2019-02-15T06:11:18.192Z,1030.86
2019-02-15T06:12:18.172Z,1030.82
2019-02-15T06:13:18.183Z,1030.84
2019-02-15T06:14:18.192Z,1030.81
2019-02-15T06:15:18.135Z,1030.80
2019-02-15T06:16:18.144Z,1030.87
2019-02-15T06:17:18.158Z,1030.87
2019-02-15T06:18:18.118Z,1030.92
2019-02-15T06:19:18.097Z,1030.89
2019-02-15T06:20:18.731Z,1030.90
2019-02-15T06:21:18.076Z,1030.90
2019-02-15T06:22:18.848Z,1030.92
2019-02-15T06:23:18.042Z,1030.93
2019-02-15T06:24:18.060Z,1030.94
2019-02-15T06:25:18.759Z,1030.91
2019-02-15T06:27:19.270Z,1030.87
2019-02-15T06:28:17.987Z,1030.91
2019-02-15T06:29:17.969Z,1030.89
2019-02-15T06:31:19.114Z,1030.87
2019-02-15T06:32:17.949Z,1030.93
2019-02-15T06:33:18.022Z,1030.90
2019-02-15T06:34:17.925Z,1030.88
2019-02-15T06:35:17.938Z,1030.90
2019-02-15T06:36:17.911Z,1030.99
2019-02-15T06:37:17.908Z,1030.98
2019-02-15T06:38:17.891Z,1031.01
2019-02-15T06:39:17.869Z,1030.98
2019-02-15T06:40:17.910Z,1030.97
2019-02-15T06:41:17.854Z,1030.99
2019-02-15T06:42:17.855Z,1031.04
2019-02-15T06:43:17.851Z,1031.01
2019-02-15T06:44:17.823Z,1031.02
2019-02-15T06:45:24.325Z,1031.00
2019-02-15T06:46:18.802Z,1030.99
2019-02-15T06:47:17.785Z,1030.98
2019-02-15T06:48:17.907Z,1030.98
2019-02-15T06:49:17.780Z,1031.01
2019-02-15T06:50:17.777Z,1031.04
2019-02-15T06:51:17.773Z,1031.06
2019-02-15T06:52:17.734Z,1031.03
2019-02-15T06:53:17.742Z,1031.07
2019-02-15T06:54:20.284Z,1031.09
2019-02-15T06:55:17.726Z,1031.08
2019-02-15T06:56:17.691Z,1031.06
2019-02-15T06:57:17.685Z,1031.10
2019-02-15T06:58:17.696Z,1031.05
2019-02-15T06:59:17.652Z,1031.06
2019-02-15T07:00:17.740Z,1031.05
2019-02-15T07:01:17.645Z,1031.05
2019-02-15T07:02:17.658Z,1031.05
2019-02-15T07:03:17.629Z,1031.01
2019-02-15T07:04:17.637Z,1031.06
2019-02-15T07:05:17.619Z,1031.08
2019-02-15T07:06:17.584Z,1031.09
2019-02-15T07:07:17.583Z,1031.16
2019-02-15T07:08:17.555Z,1031.12
2019-02-15T07:09:17.556Z,1031.14
2019-02-15T07:10:17.585Z,1031.15
2019-02-15T07:11:20.292Z,1031.16
2019-02-15T07:12:17.543Z,1031.11
2019-02-15T07:13:17.518Z,1031.17
2019-02-15T07:14:17.500Z,1031.15
2019-02-15T07:15:17.512Z,1031.16
2019-02-15T07:16:17.502Z,1031.14
2019-02-15T07:17:17.472Z,1031.16
2019-02-15T07:18:17.520Z,1031.14
2019-02-15T07:19:17.444Z,1031.19
2019-02-15T07:20:17.496Z,1031.17
2019-02-15T07:21:17.491Z,1031.18
2019-02-15T07:22:17.459Z,1031.15
2019-02-15T07:23:17.434Z,1031.15
2019-02-15T07:24:17.463Z,1031.23
2019-02-15T07:25:17.403Z,1031.18
2019-02-15T07:26:17.430Z,1031.18
2019-02-15T07:27:17.423Z,1031.18
2019-02-15T07:28:17.357Z,1031.18
2019-02-15T07:29:17.464Z,1031.14
2019-02-15T07:30:17.486Z,1031.20
2019-02-15T07:31:17.411Z,1031.22
2019-02-15T07:32:17.306Z,1031.16
2019-02-15T07:33:17.292Z,1031.21
2019-02-15T07:34:17.295Z,1031.21
2019-02-15T07:35:17.277Z,1031.21
2019-02-15T07:36:17.299Z,1031.17
2019-02-15T07:37:17.284Z,1031.21
2019-02-15T07:38:17.234Z,1031.21
2019-02-15T07:39:17.246Z,1031.20
2019-02-15T07:40:17.230Z,1031.24
2019-02-15T07:41:17.396Z,1031.22
2019-02-15T07:42:17.197Z,1031.21
2019-02-15T07:43:17.205Z,1031.18
2019-02-15T07:44:17.192Z,1031.19
2019-02-15T07:45:17.829Z,1031.22
2019-02-15T07:46:17.192Z,1031.24
2019-02-15T07:47:17.159Z,1031.25
2019-02-15T07:48:17.177Z,1031.25
2019-02-15T07:49:26.421Z,1031.22
2019-02-15T07:50:18.146Z,1031.19
2019-02-15T07:51:17.150Z,1031.15
2019-02-15T07:52:17.110Z,1031.19
2019-02-15T07:53:17.091Z,1031.18
2019-02-15T07:54:17.079Z,1031.23
2019-02-15T07:55:17.064Z,1031.24
2019-02-15T07:56:17.087Z,1031.19
2019-02-15T07:57:17.147Z,1031.19
2019-02-15T07:58:17.060Z,1031.19
2019-02-15T07:59:17.073Z,1031.20
2019-02-15T08:00:17.010Z,1031.22
2019-02-15T08:01:17.043Z,1031.29
2019-02-15T08:02:17.017Z,1031.21
2019-02-15T08:03:16.981Z,1031.22
2019-02-15T08:04:16.964Z,1031.20
2019-02-15T08:05:16.946Z,1031.23
2019-02-15T08:06:17.003Z,1031.17
2019-02-15T08:07:16.931Z,1031.19
2019-02-15T08:08:16.919Z,1031.16
2019-02-15T08:09:16.920Z,1031.14
2019-02-15T08:10:16.907Z,1031.16
2019-02-15T08:11:16.892Z,1031.13
2019-02-15T08:12:16.997Z,1031.18
2019-02-15T08:13:16.874Z,1031.19
2019-02-15T08:14:17.682Z,1031.18
2019-02-15T08:15:16.853Z,1031.17
2019-02-15T08:16:16.883Z,1031.19
2019-02-15T08:17:16.879Z,1031.19
2019-02-15T08:18:16.828Z,1031.18
2019-02-15T08:19:16.845Z,1031.22
2019-02-15T08:20:16.809Z,1031.17
2019-02-15T08:21:16.799Z,1031.23
2019-02-15T08:22:16.805Z,1031.20
2019-02-15T08:23:16.821Z,1031.22
2019-02-15T08:24:16.762Z,1031.19
2019-02-15T08:25:16.759Z,1031.22
2019-02-15T08:26:16.731Z,1031.22
2019-02-15T08:27:16.757Z,1031.25
2019-02-15T08:28:16.735Z,1031.25
2019-02-15T08:29:16.714Z,1031.26
2019-02-15T08:30:16.699Z,1031.32
2019-02-15T08:31:16.690Z,1031.27
2019-02-15T08:32:16.673Z,1031.27
2019-02-15T08:33:16.784Z,1031.28
2019-02-15T08:34:16.638Z,1031.32
2019-02-15T08:35:16.687Z,1031.28
2019-02-15T08:36:16.621Z,1031.29
2019-02-15T08:37:16.666Z,1031.36
2019-02-15T08:38:16.617Z,1031.35
2019-02-15T08:39:16.677Z,1031.32
2019-02-15T08:40:16.581Z,1031.32
2019-02-15T08:41:16.563Z,1031.31
2019-02-15T08:42:16.561Z,1031.33
2019-02-15T08:43:16.604Z,1031.33
2019-02-15T08:44:16.558Z,1031.28
2019-02-15T08:45:16.549Z,1031.33
2019-02-15T08:46:16.515Z,1031.35
2019-02-15T08:47:16.515Z,1031.33
2019-02-15T08:48:16.509Z,1031.30
2019-02-15T08:49:16.529Z,1031.29
2019-02-15T08:50:16.486Z,1031.30
2019-02-15T08:51:16.453Z,1031.32
2019-02-15T08:52:16.489Z,1031.29
2019-02-15T08:53:16.462Z,1031.36
2019-02-15T08:54:16.566Z,1031.36
2019-02-15T08:55:16.445Z,1031.37
2019-02-15T08:56:16.437Z,1031.36
2019-02-15T08:57:16.459Z,1031.36
2019-02-15T08:58:16.448Z,1031.40
2019-02-15T08:59:16.426Z,1031.38
2019-02-15T09:00:16.371Z,1031.40
2019-02-15T09:01:16.364Z,1031.40
2019-02-15T09:02:16.341Z,1031.39
2019-02-15T09:03:16.362Z,1031.36
2019-02-15T09:04:16.381Z,1031.37
2019-02-15T09:05:16.334Z,1031.38
2019-02-15T09:06:16.305Z,1031.41
2019-02-15T09:07:16.318Z,1031.41
2019-02-15T09:08:16.314Z,1031.46
2019-02-15T09:09:16.265Z,1031.47
2019-02-15T09:10:16.253Z,1031.46
2019-02-15T09:11:16.259Z,1031.44
2019-02-15T09:12:16.262Z,1031.46
2019-02-15T09:13:16.256Z,1031.48
2019-02-15T09:14:16.208Z,1031.53
2019-02-15T09:15:16.201Z,1031.50
2019-02-15T09:16:16.183Z,1031.53
2019-02-15T09:17:16.179Z,1031.46
2019-02-15T09:18:16.194Z,1031.51
2019-02-15T09:19:16.181Z,1031.48
2019-02-15T09:20:16.147Z,1031.49
2019-02-15T09:21:16.165Z,1031.52
2019-02-15T09:22:16.142Z,1031.55
2019-02-15T09:23:16.152Z,1031.57
2019-02-15T09:24:16.119Z,1031.58
2019-02-15T09:25:16.133Z,1031.58
2019-02-15T09:26:18.215Z,1031.56
2019-02-15T09:27:16.069Z,1031.50
2019-02-15T09:28:16.200Z,1031.45
2019-02-15T09:29:16.062Z,1031.47
2019-02-15T09:30:16.069Z,1031.53
2019-02-15T09:31:16.029Z,1031.48
2019-02-15T09:32:16.022Z,1031.46
2019-02-15T09:33:16.071Z,1031.47
2019-02-15T09:34:16.017Z,1031.47
2019-02-15T09:35:15.995Z,1031.44
2019-02-15T09:36:15.989Z,1031.45
2019-02-15T09:37:15.961Z,1031.46
2019-02-15T09:38:15.965Z,1031.48
2019-02-15T09:39:15.952Z,1031.49
2019-02-15T09:40:15.923Z,1031.51
2019-02-15T09:41:15.941Z,1031.51
2019-02-15T09:42:15.931Z,1031.49
2019-02-15T09:43:15.895Z,1031.55
2019-02-15T09:44:15.942Z,1031.50
2019-02-15T09:45:15.881Z,1031.52
2019-02-15T09:46:19.875Z,1031.51
2019-02-15T09:47:15.855Z,1031.49
2019-02-15T09:48:15.862Z,1031.50
2019-02-15T09:49:15.873Z,1031.43
2019-02-15T09:50:15.823Z,1031.47
2019-02-15T09:51:15.818Z,1031.47
2019-02-15T09:52:15.807Z,1031.44
2019-02-15T09:53:15.795Z,1031.42
2019-02-15T09:54:15.823Z,1031.44
2019-02-15T09:55:15.790Z,1031.41
2019-02-15T09:56:15.750Z,1031.44
2019-02-15T09:57:15.755Z,1031.42
2019-02-15T09:58:16.544Z,1031.43
2019-02-15T09:59:15.758Z,1031.47
2019-02-15T10:00:15.711Z,1031.40
2019-02-15T10:01:15.703Z,1031.43
2019-02-15T10:02:15.701Z,1031.44
2019-02-15T10:03:15.707Z,1031.39
2019-02-15T10:04:15.693Z,1031.40
2019-02-15T10:05:15.656Z,1031.33
2019-02-15T10:06:15.645Z,1031.33
2019-02-15T10:07:15.630Z,1031.34
2019-02-15T10:08:15.651Z,1031.34
2019-02-15T10:09:15.628Z,1031.28
2019-02-15T10:10:15.610Z,1031.25
2019-02-15T10:11:15.589Z,1031.27
2019-02-15T10:12:15.582Z,1031.27
2019-02-15T10:13:15.573Z,1031.28
2019-02-15T10:14:15.577Z,1031.28
2019-02-15T10:15:15.568Z,1031.29
2019-02-15T10:16:15.541Z,1031.31
2019-02-15T10:17:15.528Z,1031.34
2019-02-15T10:18:15.515Z,1031.27
2019-02-15T10:19:22.196Z,1031.27
2019-02-15T10:20:16.513Z,1031.28
2019-02-15T10:21:15.496Z,1031.30
2019-02-15T10:22:15.466Z,1031.31
2019-02-15T10:23:15.466Z,1031.31
2019-02-15T10:24:15.478Z,1031.28
2019-02-15T10:25:15.438Z,1031.27
2019-02-15T10:26:15.443Z,1031.26
2019-02-15T10:27:15.428Z,1031.28
2019-02-15T10:28:15.411Z,1031.28
2019-02-15T10:29:15.411Z,1031.21
2019-02-15T10:30:15.389Z,1031.26
2019-02-15T10:31:15.373Z,1031.20
2019-02-15T10:32:15.371Z,1031.15
2019-02-15T10:33:15.389Z,1031.17
2019-02-15T10:34:15.384Z,1031.14
2019-02-15T10:35:15.343Z,1031.20
2019-02-15T10:36:15.326Z,1031.15
2019-02-15T10:37:15.313Z,1031.19
2019-02-15T10:38:15.318Z,1031.20
2019-02-15T10:39:15.374Z,1031.15
2019-02-15T10:40:15.267Z,1031.20
2019-02-15T10:41:15.259Z,1031.14
2019-02-15T10:42:15.266Z,1031.13
2019-02-15T10:43:15.248Z,1031.12
2019-02-15T10:44:15.257Z,1031.08
2019-02-15T10:45:15.260Z,1031.10
2019-02-15T10:46:15.215Z,1031.11
2019-02-15T10:47:24.415Z,1031.11
2019-02-15T10:48:16.206Z,1031.09
2019-02-15T10:49:15.189Z,1031.08
2019-02-15T10:50:15.302Z,1031.10
2019-02-15T10:51:15.151Z,1031.07
2019-02-15T10:52:15.163Z,1031.03
2019-02-15T10:53:15.174Z,1030.98
2019-02-15T10:54:15.174Z,1031.03
2019-02-15T10:55:15.149Z,1031.00
2019-02-15T10:56:15.123Z,1030.97
2019-02-15T10:57:15.259Z,1030.97
2019-02-15T10:58:15.087Z,1030.97
2019-02-15T10:59:15.088Z,1030.92
2019-02-15T11:00:15.088Z,1030.98
2019-02-15T11:01:15.070Z,1030.95
2019-02-15T11:02:15.055Z,1030.95
2019-02-15T11:03:15.030Z,1030.94
2019-02-15T11:04:15.017Z,1030.91
2019-02-15T11:05:15.024Z,1030.95
2019-02-15T11:06:14.998Z,1030.90
2019-02-15T11:07:15.007Z,1030.93
2019-02-15T11:08:14.973Z,1030.93
2019-02-15T11:09:14.965Z,1030.90
2019-02-15T11:10:14.964Z,1030.91
2019-02-15T11:11:14.940Z,1030.89
2019-02-15T11:12:14.942Z,1030.90
2019-02-15T11:13:14.935Z,1030.90
2019-02-15T11:14:14.906Z,1030.84
2019-02-15T11:15:14.933Z,1030.82
2019-02-15T11:16:14.898Z,1030.87
2019-02-15T11:17:14.882Z,1030.83
2019-02-15T11:18:14.878Z,1030.81
2019-02-15T11:19:14.863Z,1030.77
2019-02-15T11:20:14.902Z,1030.76
2019-02-15T11:21:14.823Z,1030.80
2019-02-15T11:22:14.818Z,1030.79
2019-02-15T11:23:14.814Z,1030.77
2019-02-15T11:24:14.830Z,1030.74
2019-02-15T11:25:14.817Z,1030.71
2019-02-15T11:26:14.777Z,1030.75
2019-02-15T11:27:14.801Z,1030.81
2019-02-15T11:28:14.758Z,1030.86
2019-02-15T11:29:14.784Z,1030.82
2019-02-15T11:30:14.781Z,1030.81
2019-02-15T11:31:16.491Z,1030.82
2019-02-15T11:32:14.708Z,1030.78
2019-02-15T11:33:14.712Z,1030.75
2019-02-15T11:34:14.688Z,1030.73
2019-02-15T11:35:14.703Z,1030.75
2019-02-15T11:36:14.670Z,1030.75
2019-02-15T11:37:14.652Z,1030.73
2019-02-15T11:38:14.660Z,1030.65
2019-02-15T11:39:14.644Z,1030.67
2019-02-15T11:40:14.658Z,1030.69
2019-02-15T11:41:14.629Z,1030.68
2019-02-15T11:42:14.597Z,1030.63
2019-02-15T11:43:15.153Z,1030.66
2019-02-15T11:44:14.587Z,1030.63
2019-02-15T11:45:14.641Z,1030.68
2019-02-15T11:46:14.585Z,1030.73
2019-02-15T11:47:14.544Z,1030.63
2019-02-15T11:48:14.536Z,1030.64
2019-02-15T11:49:14.524Z,1030.66
2019-02-15T11:50:14.539Z,1030.64
2019-02-15T11:51:14.508Z,1030.67
2019-02-15T11:52:14.510Z,1030.65
2019-02-15T11:53:14.485Z,1030.68
2019-02-15T11:54:23.110Z,1030.64
2019-02-15T11:55:15.488Z,1030.63
2019-02-15T11:56:14.452Z,1030.66
2019-02-15T11:57:14.442Z,1030.69
2019-02-15T11:58:14.440Z,1030.63
2019-02-15T11:59:14.454Z,1030.64
2019-02-15T12:00:14.896Z,1030.65
2019-02-15T12:01:14.433Z,1030.62
2019-02-15T12:02:14.382Z,1030.65
2019-02-15T12:03:14.374Z,1030.66
2019-02-15T12:04:14.379Z,1030.64
2019-02-15T12:05:14.355Z,1030.64
2019-02-15T12:06:14.356Z,1030.63
2019-02-15T12:07:14.343Z,1030.63
2019-02-15T12:08:14.326Z,1030.65
2019-02-15T12:09:14.339Z,1030.70
2019-02-15T12:10:14.369Z,1030.69
2019-02-15T12:11:14.355Z,1030.67